TimeCDT,TemperatureF,Dew PointF,Humidity,Sea Level PressureIn,VisibilityMPH,Wind Direction,Wind SpeedMPH,Gust SpeedMPH,PrecipitationIn,Events,Conditions,WindDirDegrees,DateUTC
12:15 AM,37.4,30.2,75,30.29,10.0,East,10.4,-,N/A,,Scattered Clouds,90,2013-10-29 05:15:00
12:35 AM,37.4,30.2,75,30.30,10.0,East,9.2,16.1,N/A,,Scattered Clouds,100,2013-10-29 05:35:00
12:55 AM,37.4,30.2,75,30.29,10.0,East,9.2,-,N/A,,Mostly Cloudy,100,2013-10-29 05:55:00
1:15 AM,37.4,30.2,75,30.29,10.0,East,10.4,-,N/A,,Overcast,90,2013-10-29 06:15:00
1:35 AM,37.4,30.2,75,30.28,10.0,East,10.4,-,N/A,,Overcast,90,2013-10-29 06:35:00
1:55 AM,37.4,30.2,75,30.28,10.0,East,10.4,-,N/A,,Overcast,100,2013-10-29 06:55:00
2:15 AM,37.4,30.2,75,30.28,10.0,East,9.2,-,N/A,,Overcast,100,2013-10-29 07:15:00
2:35 AM,37.4,32.0,81,30.27,9.0,East,9.2,-,N/A,Rain,Light Rain,80,2013-10-29 07:35:00
2:55 AM,37.4,32.0,81,30.27,6.0,ENE,10.4,-,0.01,,Overcast,70,2013-10-29 07:55:00
3:15 AM,37.4,33.8,87,30.26,10.0,East,11.5,-,N/A,,Overcast,80,2013-10-29 08:15:00
3:35 AM,37.4,33.8,87,30.25,10.0,ENE,11.5,-,N/A,,Overcast,70,2013-10-29 08:35:00
3:55 AM,37.4,33.8,87,30.25,10.0,East,10.4,-,N/A,,Overcast,80,2013-10-29 08:55:00
4:15 AM,37.4,33.8,87,30.25,10.0,East,10.4,17.3,N/A,,Overcast,80,2013-10-29 09:15:00
9:35 AM,39.2,33.8,81,30.21,10.0,East,12.7,-,N/A,,Overcast,100,2013-10-29 14:35:00
9:55 AM,39.2,35.6,87,30.20,10.0,ESE,16.1,-,N/A,,Overcast,110,2013-10-29 14:55:00
10:15 AM,41.0,35.6,81,30.19,10.0,ESE,13.8,21.9,N/A,,Overcast,120,2013-10-29 15:15:00
10:35 AM,41.0,35.6,81,30.17,10.0,SE,18.4,-,N/A,,Overcast,130,2013-10-29 15:35:00
10:55 AM,41.0,35.6,81,30.18,10.0,ESE,8.1,19.6,N/A,,Overcast,110,2013-10-29 15:55:00
11:15 AM,42.8,37.4,81,30.16,10.0,ESE,12.7,-,N/A,,Overcast,120,2013-10-29 16:15:00
11:35 AM,44.6,37.4,76,30.16,10.0,SE,11.5,17.3,N/A,,Mostly Cloudy,130,2013-10-29 16:35:00
11:55 AM,46.4,39.2,76,30.16,10.0,SE,13.8,-,N/A,,Overcast,130,2013-10-29 16:55:00
12:15 PM,46.4,37.4,71,30.16,10.0,SE,12.7,19.6,N/A,,Overcast,140,2013-10-29 17:15:00
12:35 PM,46.4,37.4,71,30.15,10.0,ESE,10.4,16.1,N/A,,Mostly Cloudy,120,2013-10-29 17:35:00
12:55 PM,50.0,39.2,66,30.13,9.0,ESE,10.4,-,N/A,,Scattered Clouds,120,2013-10-29 17:55:00
1:15 PM,50.0,39.2,66,30.12,10.0,SSE,11.5,-,N/A,,Partly Cloudy,150,2013-10-29 18:15:00
1:35 PM,53.6,39.2,58,30.11,-9999.0,SE,6.9,13.8,N/A,,Partly Cloudy,130,2013-10-29 18:35:00
1:55 PM,51.8,39.2,62,30.09,10.0,ESE,10.4,-,N/A,,Mostly Cloudy,110,2013-10-29 18:55:00
2:15 PM,51.8,39.2,62,30.09,9.0,SE,8.1,-,N/A,,Overcast,130,2013-10-29 19:15:00
2:35 PM,51.8,41.0,67,30.08,10.0,SE,8.1,-,N/A,,Overcast,130,2013-10-29 19:35:00
2:55 PM,53.6,41.0,62,30.08,10.0,SE,6.9,-,N/A,,Overcast,130,2013-10-29 19:55:00
3:15 PM,53.6,41.0,62,30.07,10.0,SE,6.9,-,N/A,,Overcast,130,2013-10-29 20:15:00
3:35 PM,55.4,42.8,63,30.06,9.0,East,10.4,-,N/A,,Overcast,100,2013-10-29 20:35:00
3:55 PM,53.6,42.8,67,30.06,9.0,East,8.1,-,N/A,,Overcast,100,2013-10-29 20:55:00
4:15 PM,55.4,42.8,63,30.05,9.0,East,6.9,-,N/A,,Overcast,80,2013-10-29 21:15:00
4:35 PM,55.4,42.8,63,30.04,9.0,ESE,8.1,-,N/A,,Overcast,110,2013-10-29 21:35:00
4:55 PM,55.4,42.8,63,30.03,9.0,ESE,10.4,-,N/A,,Overcast,110,2013-10-29 21:55:00
5:15 PM,55.4,44.6,67,30.02,9.0,ESE,10.4,-,N/A,,Overcast,110,2013-10-29 22:15:00
5:35 PM,55.4,44.6,67,30.01,9.0,East,8.1,18.4,N/A,,Overcast,100,2013-10-29 22:35:00
5:55 PM,55.4,44.6,67,30.01,9.0,ESE,8.1,13.8,N/A,,Overcast,120,2013-10-29 22:55:00
6:15 PM,53.6,44.6,72,30.02,8.0,ESE,9.2,-,N/A,,Overcast,120,2013-10-29 23:15:00
6:35 PM,53.6,44.6,72,30.02,10.0,SE,6.9,-,N/A,,Overcast,130,2013-10-29 23:35:00
6:55 PM,53.6,44.6,72,30.03,10.0,ESE,11.5,-,N/A,,Overcast,110,2013-10-29 23:55:00
7:15 PM,53.6,44.6,72,30.03,10.0,ESE,10.4,-,N/A,,Overcast,110,2013-10-30 00:15:00
7:35 PM,53.6,44.6,72,30.04,10.0,SE,8.1,-,N/A,,Overcast,130,2013-10-30 00:35:00
7:55 PM,51.8,46.4,82,30.04,3.0,SE,9.2,16.1,N/A,,Haze,140,2013-10-30 00:55:00
8:15 PM,50.0,46.4,87,30.04,5.0,ESE,4.6,-,N/A,,Overcast,110,2013-10-30 01:15:00
8:35 PM,50.0,48.2,94,30.03,7.0,East,5.8,-,N/A,,Overcast,90,2013-10-30 01:35:00
8:55 PM,50.0,48.2,94,30.02,8.0,East,6.9,-,N/A,,Overcast,80,2013-10-30 01:55:00
9:15 PM,50.0,46.4,87,30.02,8.0,East,6.9,-,N/A,,Overcast,80,2013-10-30 02:15:00
9:35 PM,50.0,46.4,87,30.02,8.0,East,8.1,-,N/A,,Overcast,80,2013-10-30 02:35:00
9:55 PM,50.0,46.4,87,30.01,9.0,East,9.2,-,N/A,,Overcast,100,2013-10-30 02:55:00
10:15 PM,50.0,46.4,87,30.02,10.0,ESE,5.8,11.5,N/A,,Overcast,120,2013-10-30 03:15:00
10:35 PM,50.0,44.6,82,30.02,10.0,SE,5.8,-,N/A,,Overcast,130,2013-10-30 03:35:00
10:55 PM,50.0,44.6,82,30.02,10.0,SE,6.9,-,N/A,,Overcast,140,2013-10-30 03:55:00
11:15 PM,51.8,44.6,76,30.01,10.0,SE,9.2,-,N/A,,Overcast,140,2013-10-30 04:15:00
11:35 PM,51.8,44.6,76,30.01,10.0,SE,8.1,15.0,N/A,,Overcast,140,2013-10-30 04:35:00
11:55 PM,51.8,44.6,76,30.00,10.0,SE,9.2,-,N/A,,Overcast,140,2013-10-30 04:55:00